Time;durP1;ratioP1;P1;durP2;ratioP2;P2;SDS_P1;SDS_P2;PMS_P1;PMS_P2;Temp;Humidity;BMP_temperature;BMP_pressure;BME280_temperature;BME280_humidity;BME280_pressure;Samples;Min_cycle;Max_cycle;Signal;HPM_P1;HPM_P2
2022/09/26 00:00:10;;;;;;;3.45;2.05;;;11.20;99.90;;;;;;4845265;29;20041;-86
2022/09/26 00:02:36;;;;;;;6.45;2.35;;;11.20;99.90;;;;;;4845749;29;20079;-86
2022/09/26 00:05:01;;;;;;;3.88;2.08;;;11.30;99.90;;;;;;4845214;29;20172;-86
2022/09/26 00:07:27;;;;;;;6.53;2.20;;;11.20;99.90;;;;;;4845449;29;20033;-86
2022/09/26 00:09:54;;;;;;;5.35;2.60;;;11.10;99.90;;;;;;4832482;29;20137;-85
2022/09/26 00:12:20;;;;;;;4.45;2.10;;;11.30;99.90;;;;;;4845702;29;20512;-86
2022/09/26 00:14:45;;;;;;;3.50;2.10;;;11.30;99.90;;;;;;4844122;29;20168;-86
2022/09/26 00:17:11;;;;;;;5.05;2.15;;;11.10;99.90;;;;;;4842408;29;20072;-85
2022/09/26 00:19:37;;;;;;;6.32;3.05;;;11.10;99.90;;;;;;4830138;29;20148;-86
2022/09/26 00:22:03;;;;;;;4.43;2.22;;;11.20;99.90;;;;;;4843015;29;20041;-86
2022/09/26 00:24:29;;;;;;;4.35;2.33;;;11.20;99.90;;;;;;4851080;29;20124;-85
2022/09/26 00:26:55;;;;;;;5.78;2.40;;;11.20;99.90;;;;;;4843681;29;20045;-86
2022/09/26 00:29:23;;;;;;;4.28;2.28;;;11.20;99.90;;;;;;4845227;29;20411;-87
2022/09/26 00:31:49;;;;;;;8.13;2.42;;;11.20;99.90;;;;;;4844099;29;20034;-86
2022/09/26 00:34:17;;;;;;;6.20;2.50;;;11.10;99.90;;;;;;4836387;29;20052;-85
2022/09/26 00:36:43;;;;;;;5.47;2.65;;;11.20;99.90;;;;;;4851155;29;20049;-85
2022/09/26 00:39:11;;;;;;;6.72;2.38;;;11.00;99.90;;;;;;4850844;29;20397;-85
2022/09/26 00:41:37;;;;;;;5.03;2.30;;;11.10;99.90;;;;;;4830468;29;20140;-85
2022/09/26 00:44:35;;;;;;;5.85;2.30;;;11.00;99.90;;;;;;4831416;29;20109;-86
2022/09/26 00:47:02;;;;;;;3.83;2.20;;;11.00;99.90;;;;;;4829152;29;20543;-85
2022/09/26 00:49:32;;;;;;;5.78;2.40;;;11.00;99.90;;;;;;4831809;29;20076;-86
2022/09/26 00:52:06;;;;;;;6.60;2.60;;;11.10;99.90;;;;;;4821985;29;20060;-86
2022/09/26 00:54:35;;;;;;;5.88;2.67;;;11.00;99.90;;;;;;4849304;29;20056;-86
2022/09/26 00:57:06;;;;;;;5.13;2.50;;;11.10;99.90;;;;;;4847377;29;20056;-85
2022/09/26 00:59:37;;;;;;;8.25;2.63;;;11.00;99.90;;;;;;4847656;29;20067;-86
2022/09/26 01:02:04;;;;;;;5.32;2.38;;;11.10;99.90;;;;;;4847942;29;20418;-85
2022/09/26 01:04:32;;;;;;;4.03;2.50;;;11.10;99.90;;;;;;4832191;29;20048;-85
2022/09/26 01:07:01;;;;;;;5.65;2.60;;;11.00;99.90;;;;;;4861886;29;20608;-86
2022/09/26 01:09:31;;;;;;;8.43;3.53;;;11.10;99.90;;;;;;4862608;29;20043;-85
2022/09/26 01:12:00;;;;;;;7.07;2.75;;;11.00;99.90;;;;;;4849741;29;21586;-84
2022/09/26 01:14:26;;;;;;;4.85;2.60;;;11.00;99.90;;;;;;4862811;29;20219;-85
2022/09/26 01:16:53;;;;;;;5.53;2.85;;;11.00;99.90;;;;;;4859868;29;20060;-86
2022/09/26 01:19:40;;;;;;;5.70;3.05;;;11.00;99.90;;;;;;4863668;29;20434;-85
2022/09/26 01:22:40;;;;;;;9.15;2.78;;;11.00;99.90;;;;;;4849590;29;20085;-85
2022/09/26 01:25:33;;;;;;;5.75;2.95;;;11.00;99.90;;;;;;4853284;29;20097;-85
2022/09/26 01:28:36;;;;;;;5.53;2.70;;;11.10;99.90;;;;;;4868649;29;20033;-85
2022/09/26 01:31:30;;;;;;;7.75;2.97;;;11.10;99.90;;;;;;4831044;29;20464;-85
2022/09/26 01:34:16;;;;;;;7.13;2.88;;;11.20;99.90;;;;;;4868737;29;20405;-85
2022/09/26 01:37:02;;;;;;;4.03;2.90;;;11.10;99.90;;;;;;4854720;29;20505;-85
2022/09/26 01:39:46;;;;;;;8.00;3.15;;;11.20;99.90;;;;;;4863194;29;20110;-86
2022/09/26 01:42:37;;;;;;;7.05;2.90;;;11.10;99.90;;;;;;4854095;29;20509;-86
2022/09/26 01:45:24;;;;;;;6.75;3.00;;;11.20;99.90;;;;;;4860474;29;20045;-85
2022/09/26 01:48:02;;;;;;;7.70;3.15;;;11.10;99.90;;;;;;4847627;29;20140;-86
2022/09/26 01:50:40;;;;;;;6.60;3.30;;;11.10;99.90;;;;;;4870580;29;20071;-85
2022/09/26 01:53:24;;;;;;;5.30;2.88;;;11.20;99.90;;;;;;4862204;29;20418;-85
2022/09/26 01:56:08;;;;;;;6.45;3.10;;;11.10;99.90;;;;;;4847913;29;20140;-85
2022/09/26 01:58:46;;;;;;;5.10;2.80;;;11.20;99.90;;;;;;4849330;29;20192;-85
2022/09/26 02:01:15;;;;;;;6.18;3.03;;;11.20;99.90;;;;;;4862199;29;20100;-85
2022/09/26 02:03:48;;;;;;;5.95;2.88;;;11.30;99.90;;;;;;4869013;29;20478;-85
2022/09/26 02:06:22;;;;;;;5.75;2.80;;;11.30;99.90;;;;;;4845888;29;20049;-85
2022/09/26 02:09:13;;;;;;;8.65;3.20;;;11.30;99.90;;;;;;4865351;29;20040;-86
2022/09/26 02:11:42;;;;;;;5.32;2.85;;;11.30;99.90;;;;;;4846521;29;20041;-84
2022/09/26 02:14:08;;;;;;;5.68;3.17;;;11.20;99.90;;;;;;4880046;29;20293;-85
2022/09/26 02:16:47;;;;;;;7.35;3.20;;;11.20;99.90;;;;;;4851125;29;20373;-84
2022/09/26 02:19:22;;;;;;;5.68;2.90;;;11.30;99.90;;;;;;4852681;29;20112;-85
2022/09/26 02:21:49;;;;;;;5.53;2.85;;;11.30;99.90;;;;;;4849291;29;20049;-84
2022/09/26 02:24:15;;;;;;;6.95;3.17;;;11.30;99.90;;;;;;4848262;29;20049;-85
2022/09/26 02:26:41;;;;;;;10.27;3.00;;;11.30;99.90;;;;;;4861496;29;20037;-85
2022/09/26 02:29:08;;;;;;;4.97;2.80;;;11.30;99.90;;;;;;4847356;29;20339;-85
2022/09/26 02:31:40;;;;;;;6.65;2.95;;;11.30;99.90;;;;;;4861339;29;20413;-86
2022/09/26 02:34:06;;;;;;;10.00;2.92;;;11.30;99.90;;;;;;4846878;29;20052;-85
2022/09/26 02:36:33;;;;;;;8.30;3.45;;;11.30;99.90;;;;;;4862030;29;20088;-85
2022/09/26 02:39:00;;;;;;;6.10;3.08;;;11.30;99.90;;;;;;4848314;29;20052;-86
2022/09/26 02:41:39;;;;;;;7.13;3.20;;;11.30;99.90;;;;;;4860441;29;20101;-85
2022/09/26 02:44:23;;;;;;;7.18;3.47;;;11.30;99.90;;;;;;4847048;29;20083;-85
2022/09/26 02:47:05;;;;;;;8.25;3.25;;;11.20;99.90;;;;;;4845583;29;20045;-86
2022/09/26 02:49:51;;;;;;;5.90;3.40;;;11.40;99.90;;;;;;4847437;29;20045;-85
2022/09/26 02:52:49;;;;;;;6.85;3.15;;;11.20;99.90;;;;;;4867420;29;20080;-84
2022/09/26 02:55:57;;;;;;;7.15;3.28;;;11.30;99.90;;;;;;4858856;29;20080;-84
2022/09/26 02:59:00;;;;;;;12.18;4.10;;;11.20;99.90;;;;;;4845373;29;20483;-84
2022/09/26 03:02:08;;;;;;;8.48;3.47;;;11.30;99.90;;;;;;4859244;29;20041;-85
2022/09/26 03:04:52;;;;;;;6.22;3.50;;;11.20;99.90;;;;;;4862714;29;20128;-84
2022/09/26 03:07:28;;;;;;;8.80;4.40;;;11.20;99.90;;;;;;4868210;29;20041;-84
2022/09/26 03:09:56;;;;;;;8.10;3.65;;;11.20;99.90;;;;;;4830785;29;20149;-84
2022/09/26 03:12:24;;;;;;;8.27;4.00;;;11.30;99.90;;;;;;4847335;29;20037;-84
2022/09/26 03:14:51;;;;;;;7.57;3.97;;;11.30;99.90;;;;;;4876195;29;20489;-84
2022/09/26 03:17:17;;;;;;;11.27;4.60;;;11.10;99.90;;;;;;4851371;29;20049;-84
2022/09/26 03:19:48;;;;;;;7.93;4.18;;;11.20;99.90;;;;;;4862885;29;20379;-84
2022/09/26 03:22:16;;;;;;;7.05;4.10;;;11.20;99.90;;;;;;4861650;29;20124;-84
2022/09/26 03:24:42;;;;;;;9.38;5.05;;;11.10;99.90;;;;;;4851768;29;20098;-84
2022/09/26 03:27:11;;;;;;;7.57;4.60;;;11.20;99.90;;;;;;4845996;29;20049;-84
2022/09/26 03:29:38;;;;;;;9.82;4.85;;;11.30;99.90;;;;;;4861938;29;20090;-84
2022/09/26 03:32:04;;;;;;;7.00;4.45;;;11.20;99.90;;;;;;4844713;29;20134;-84
2022/09/26 03:34:30;;;;;;;7.85;4.90;;;11.30;99.90;;;;;;4861541;29;20041;-84
2022/09/26 03:36:58;;;;;;;9.55;4.90;;;11.30;99.90;;;;;;4844976;29;20505;-85
2022/09/26 03:39:24;;;;;;;8.30;4.85;;;11.30;99.90;;;;;;4845307;29;20411;-84
2022/09/26 03:41:54;;;;;;;8.05;5.35;;;11.40;99.90;;;;;;4845937;29;20560;-85
2022/09/26 03:44:20;;;;;;;8.77;5.40;;;11.40;99.90;;;;;;4863472;29;20073;-84
2022/09/26 03:46:46;;;;;;;9.48;5.55;;;11.40;99.90;;;;;;4859836;29;20049;-85
2022/09/26 03:49:15;;;;;;;8.48;5.28;;;11.40;99.90;;;;;;4832885;29;20041;-84
2022/09/26 03:51:42;;;;;;;9.43;5.90;;;11.30;99.90;;;;;;4860593;29;20121;-85
2022/09/26 03:54:07;;;;;;;11.15;5.90;;;11.40;99.90;;;;;;4846122;29;20049;-84
2022/09/26 03:56:33;;;;;;;11.65;5.97;;;11.30;99.90;;;;;;4875010;29;20045;-84
2022/09/26 03:58:59;;;;;;;8.68;5.90;;;11.40;99.90;;;;;;4847022;29;20045;-84
2022/09/26 04:01:25;;;;;;;11.38;5.90;;;11.40;99.90;;;;;;4875222;29;20072;-84
2022/09/26 04:03:51;;;;;;;8.13;6.50;;;11.40;99.90;;;;;;4852182;29;20072;-84
2022/09/26 04:06:18;;;;;;;7.97;6.07;;;11.40;99.90;;;;;;4844454;29;20097;-83
2022/09/26 04:08:46;;;;;;;10.00;6.45;;;11.30;99.90;;;;;;4847895;29;20455;-84
2022/09/26 04:11:14;;;;;;;8.52;6.15;;;11.30;99.90;;;;;;4848616;29;20060;-84
2022/09/26 04:13:42;;;;;;;10.63;6.45;;;11.40;99.90;;;;;;4863787;29;20064;-85
2022/09/26 04:16:09;;;;;;;8.75;6.15;;;11.40;99.90;;;;;;4855471;29;20337;-84
2022/09/26 04:18:35;;;;;;;10.32;6.03;;;11.30;99.90;;;;;;4863905;29;20509;-84
2022/09/26 04:21:06;;;;;;;12.30;7.03;;;11.40;99.90;;;;;;4870034;29;20073;-84
2022/09/26 04:23:34;;;;;;;11.05;6.97;;;11.30;99.90;;;;;;4865085;29;20116;-84
2022/09/26 04:26:09;;;;;;;9.35;6.22;;;11.30;99.90;;;;;;4849041;29;20877;-84
2022/09/26 04:28:36;;;;;;;8.95;6.07;;;11.40;99.90;;;;;;4853080;29;20033;-84
2022/09/26 04:31:05;;;;;;;12.75;6.75;;;11.40;99.90;;;;;;4853711;29;20049;-84
2022/09/26 04:33:32;;;;;;;9.02;6.15;;;11.30;99.90;;;;;;4869508;29;20100;-84
2022/09/26 04:36:03;;;;;;;10.63;6.15;;;11.30;99.90;;;;;;4867773;29;20400;-84
2022/09/26 04:38:32;;;;;;;9.70;6.18;;;11.20;99.90;;;;;;4864975;29;20241;-84
2022/09/26 04:41:19;;;;;;;11.75;6.65;;;11.30;99.90;;;;;;4864714;29;20330;-84
2022/09/26 04:43:45;;;;;;;10.98;7.00;;;11.40;99.90;;;;;;4849628;29;20052;-84
2022/09/26 04:46:17;;;;;;;9.73;5.97;;;11.30;99.90;;;;;;4862958;29;20057;-84
2022/09/26 04:48:43;;;;;;;8.27;6.15;;;11.40;99.90;;;;;;4870315;29;20045;-84
2022/09/26 04:51:12;;;;;;;11.05;6.50;;;11.30;99.90;;;;;;4847595;29;20068;-85
2022/09/26 04:53:39;;;;;;;9.10;5.53;;;11.20;99.90;;;;;;4829985;29;20166;-85
2022/09/26 04:56:06;;;;;;;11.80;6.32;;;11.30;99.90;;;;;;4843968;29;21648;-85
2022/09/26 04:58:33;;;;;;;12.23;6.63;;;11.40;99.90;;;;;;4829888;29;20052;-84
2022/09/26 05:01:09;;;;;;;12.70;6.78;;;11.30;99.90;;;;;;4849715;29;20081;-84
2022/09/26 05:03:40;;;;;;;12.02;6.28;;;11.30;99.90;;;;;;4832076;29;20064;-85
2022/09/26 05:06:10;;;;;;;12.13;6.88;;;11.30;99.90;;;;;;4829752;29;20053;-84
2022/09/26 05:08:36;;;;;;;11.25;6.72;;;11.20;99.90;;;;;;4829781;29;20046;-84
2022/09/26 05:11:02;;;;;;;10.10;7.00;;;11.20;99.90;;;;;;4829174;29;20041;-85
2022/09/26 05:13:29;;;;;;;10.98;7.28;;;11.30;99.90;;;;;;4860642;29;20509;-85
2022/09/26 05:15:57;;;;;;;11.10;6.68;;;11.20;99.90;;;;;;4842679;29;20049;-84
2022/09/26 05:18:24;;;;;;;11.88;6.95;;;11.30;99.90;;;;;;4814830;29;20076;-84
2022/09/26 05:20:50;;;;;;;13.95;6.68;;;11.30;99.90;;;;;;4843270;29;20116;-85
2022/09/26 05:26:18;;;;;;;12.05;7.07;;;11.30;99.90;;;;;;4850153;29;20042;-85
2022/09/26 05:26:22;;;;;;;13.20;7.18;;;11.30;99.90;;;;;;4843414;29;20798;-85
2022/09/26 05:28:55;;;;;;;12.88;6.93;;;11.20;99.90;;;;;;4829095;29;20044;-85
2022/09/26 05:31:24;;;;;;;13.82;7.07;;;11.10;99.90;;;;;;4829878;29;20101;-84
2022/09/26 05:33:50;;;;;;;10.13;6.75;;;11.30;99.90;;;;;;4829693;29;20416;-85
2022/09/26 05:36:17;;;;;;;12.57;7.47;;;11.30;99.90;;;;;;4828433;29;20454;-85
2022/09/26 05:38:44;;;;;;;11.07;7.28;;;11.20;99.90;;;;;;4837009;29;20059;-84
2022/09/26 05:41:12;;;;;;;10.93;7.57;;;11.30;99.90;;;;;;4843283;29;20037;-85
2022/09/26 05:43:38;;;;;;;9.95;7.50;;;11.30;99.90;;;;;;4843671;29;20049;-85
2022/09/26 05:46:07;;;;;;;9.35;7.18;;;11.20;99.90;;;;;;4841861;29;20090;-84
2022/09/26 05:48:34;;;;;;;12.60;7.50;;;11.10;99.90;;;;;;4845756;29;20622;-85
2022/09/26 05:51:08;;;;;;;10.65;6.95;;;11.20;99.90;;;;;;4828801;29;20470;-84
2022/09/26 05:53:34;;;;;;;8.77;7.05;;;11.10;99.90;;;;;;4871300;29;20049;-84
2022/09/26 05:56:00;;;;;;;11.13;6.63;;;11.10;99.90;;;;;;4861690;29;20049;-85
2022/09/26 05:58:31;;;;;;;8.57;6.88;;;11.20;99.90;;;;;;4878700;29;20041;-85
2022/09/26 06:01:11;;;;;;;10.05;7.13;;;11.30;99.90;;;;;;4862409;29;20060;-85
2022/09/26 06:03:40;;;;;;;11.52;6.63;;;11.20;99.90;;;;;;4853177;29;20080;-84
2022/09/26 06:06:09;;;;;;;10.18;6.78;;;11.20;99.90;;;;;;4877772;29;20525;-85
2022/09/26 06:08:36;;;;;;;10.35;6.55;;;11.30;99.90;;;;;;4854414;29;20112;-85
2022/09/26 06:11:13;;;;;;;11.73;7.13;;;11.10;99.90;;;;;;4876897;29;20047;-85
2022/09/26 06:13:44;;;;;;;8.65;6.70;;;11.20;99.90;;;;;;4878543;29;20439;-84
2022/09/26 06:16:18;;;;;;;10.38;6.72;;;11.10;99.90;;;;;;4862170;29;20048;-86
2022/09/26 06:18:50;;;;;;;9.13;6.28;;;11.20;99.90;;;;;;4864680;29;20045;-85
2022/09/26 06:21:17;;;;;;;10.73;6.82;;;11.10;99.90;;;;;;4862094;29;20530;-85
2022/09/26 06:23:46;;;;;;;10.40;6.60;;;11.10;99.90;;;;;;4845540;29;20040;-85
2022/09/26 06:26:23;;;;;;;9.60;6.65;;;11.00;99.90;;;;;;4845463;29;20151;-84
2022/09/26 06:28:56;;;;;;;10.60;6.70;;;11.10;99.90;;;;;;4829840;29;20613;-84
2022/09/26 06:31:23;;;;;;;12.38;6.85;;;11.10;99.90;;;;;;4866558;29;20049;-85
2022/09/26 06:33:53;;;;;;;13.80;6.80;;;11.10;99.90;;;;;;4871456;29;20060;-84
2022/09/26 06:36:19;;;;;;;10.52;6.60;;;11.10;99.90;;;;;;4846734;29;20481;-85
2022/09/26 06:38:44;;;;;;;10.38;6.03;;;11.10;99.90;;;;;;4845987;29;20041;-85
2022/09/26 06:41:14;;;;;;;10.05;6.15;;;10.90;99.90;;;;;;4868182;29;20056;-85
2022/09/26 06:43:41;;;;;;;10.65;6.15;;;10.90;99.90;;;;;;4846889;29;20108;-86
2022/09/26 06:46:08;;;;;;;11.00;5.82;;;11.00;99.90;;;;;;4860810;29;20514;-84
2022/09/26 06:48:34;;;;;;;9.70;6.32;;;11.00;99.90;;;;;;4853755;29;20037;-84
2022/09/26 06:51:00;;;;;;;8.07;5.72;;;10.90;99.90;;;;;;4867488;29;20190;-85
2022/09/26 06:53:27;;;;;;;19.23;6.80;;;11.00;99.90;;;;;;4828855;29;20210;-85
2022/09/26 06:55:53;;;;;;;9.18;5.53;;;11.00;99.90;;;;;;4826055;29;20048;-85
2022/09/26 06:58:18;;;;;;;7.40;5.00;;;11.00;99.90;;;;;;4813356;29;20049;-85
2022/09/26 07:00:44;;;;;;;7.63;5.85;;;11.00;99.90;;;;;;4825855;29;20072;-85
2022/09/26 07:03:12;;;;;;;12.73;5.90;;;11.00;99.90;;;;;;4830068;29;20049;-85
2022/09/26 07:05:38;;;;;;;7.78;5.22;;;11.00;99.90;;;;;;4844344;29;20068;-86
2022/09/26 07:08:04;;;;;;;11.00;5.53;;;11.00;99.90;;;;;;4814619;29;20037;-84
2022/09/26 07:10:33;;;;;;;10.25;5.50;;;11.00;99.90;;;;;;4846723;29;20045;-85
2022/09/26 07:13:04;;;;;;;9.40;5.70;;;10.90;99.90;;;;;;4848299;29;20053;-86
2022/09/26 07:15:32;;;;;;;9.88;5.25;;;11.00;99.90;;;;;;4828788;29;20145;-85
2022/09/26 07:18:01;;;;;;;12.48;5.47;;;11.10;99.90;;;;;;4843800;29;20053;-85
2022/09/26 07:20:30;;;;;;;7.78;4.97;;;11.10;99.90;;;;;;4813698;29;20082;-85
2022/09/26 07:23:01;;;;;;;11.77;5.57;;;11.00;99.90;;;;;;4843707;29;20056;-86
2022/09/26 07:25:28;;;;;;;9.20;5.07;;;11.10;99.90;;;;;;4829177;29;20037;-85
2022/09/26 07:27:54;;;;;;;9.88;5.38;;;11.10;99.90;;;;;;4837839;29;20118;-84
2022/09/26 07:30:20;;;;;;;9.00;5.25;;;11.00;99.90;;;;;;4842373;29;20046;-86
2022/09/26 07:32:46;;;;;;;8.55;5.47;;;11.20;99.90;;;;;;4845464;29;20046;-85
2022/09/26 07:35:23;;;;;;;11.68;5.65;;;11.00;99.90;;;;;;4833588;29;20210;-85
2022/09/26 07:37:58;;;;;;;7.95;5.70;;;11.10;99.90;;;;;;4827740;29;20045;-84
2022/09/26 07:40:25;;;;;;;9.93;5.45;;;11.10;99.90;;;;;;4826906;29;20131;-85
2022/09/26 07:42:51;;;;;;;8.18;4.88;;;11.20;99.90;;;;;;4831715;29;20140;-85
2022/09/26 07:50:10;;;;;;;10.13;5.32;;;11.10;99.90;;;;;;4850551;29;20083;-85
2022/09/26 07:50:57;;;;;;;8.25;5.35;;;11.30;99.90;;;;;;4850857;29;20162;-85
2022/09/26 07:53:25;;;;;;;7.93;4.50;;;11.30;99.90;;;;;;4847823;29;20488;-85
2022/09/26 07:56:26;;;;;;;9.25;4.55;;;11.30;99.90;;;;;;4861972;29;20045;-85
2022/09/26 07:58:45;;;;;;;7.43;4.30;;;11.40;99.90;;;;;;4826895;29;20106;-85
2022/09/26 08:01:15;;;;;;;8.90;4.35;;;11.40;99.90;;;;;;4860352;29;20041;-85
2022/09/26 08:03:49;;;;;;;6.55;4.10;;;11.50;99.90;;;;;;4834115;29;20474;-84
2022/09/26 08:06:19;;;;;;;5.47;4.28;;;11.40;99.90;;;;;;4831275;29;20400;-84
2022/09/26 08:08:47;;;;;;;6.38;4.38;;;11.50;99.90;;;;;;4861739;29;20037;-85
2022/09/26 08:11:15;;;;;;;6.88;4.07;;;11.40;99.90;;;;;;4840325;29;20113;-85
2022/09/26 08:13:45;;;;;;;4.80;4.05;;;11.50;99.90;;;;;;4832095;29;20132;-84
2022/09/26 08:16:18;;;;;;;8.13;3.83;;;11.60;99.90;;;;;;4845246;29;20041;-84
2022/09/26 08:18:44;;;;;;;6.03;4.13;;;11.60;99.90;;;;;;4853651;29;20131;-85
2022/09/26 08:21:10;;;;;;;6.45;3.95;;;11.60;99.90;;;;;;4834012;29;20108;-84
2022/09/26 08:23:36;;;;;;;5.88;3.97;;;11.70;99.90;;;;;;4833232;29;20525;-85
2022/09/26 08:26:04;;;;;;;7.05;4.00;;;11.60;99.90;;;;;;4835825;29;20642;-84
2022/09/26 08:28:30;;;;;;;4.57;3.75;;;11.60;99.90;;;;;;4832254;29;20044;-84
2022/09/26 08:30:59;;;;;;;6.38;3.88;;;11.60;99.90;;;;;;4830247;29;20045;-84
2022/09/26 08:33:25;;;;;;;9.95;4.35;;;11.70;99.90;;;;;;4829478;29;20050;-84
2022/09/26 08:35:51;;;;;;;6.40;3.97;;;11.70;99.90;;;;;;4847879;29;20050;-84
2022/09/26 08:38:17;;;;;;;5.35;3.97;;;11.60;99.90;;;;;;4846690;29;20402;-85
2022/09/26 08:40:55;;;;;;;7.00;4.07;;;11.60;99.90;;;;;;4836341;29;20127;-85
2022/09/26 08:43:24;;;;;;;5.30;3.60;;;11.70;99.90;;;;;;4846733;29;20443;-85
2022/09/26 08:48:54;;;;;;;5.85;3.83;;;11.60;99.90;;;;;;4833837;29;20094;-85
2022/09/26 08:51:26;;;;;;;7.00;4.00;;;11.70;99.90;;;;;;4831598;29;20049;-85
2022/09/26 08:54:08;;;;;;;7.97;3.70;;;11.70;99.90;;;;;;4860968;29;20451;-84
2022/09/26 08:56:44;;;;;;;5.53;3.70;;;11.80;99.90;;;;;;4829983;29;20064;-84
2022/09/26 08:59:32;;;;;;;9.35;4.85;;;12.00;99.90;;;;;;4852705;29;20658;-83
2022/09/26 09:02:04;;;;;;;5.97;4.00;;;12.00;99.90;;;;;;4837964;29;20121;-85
2022/09/26 09:04:48;;;;;;;5.18;3.80;;;11.90;99.90;;;;;;4832612;29;20510;-84
2022/09/26 09:07:23;;;;;;;6.57;3.85;;;12.10;99.90;;;;;;4846493;29;20536;-85
2022/09/26 09:09:55;;;;;;;7.00;4.32;;;12.00;99.90;;;;;;4836347;29;20060;-84
2022/09/26 09:12:28;;;;;;;6.38;4.03;;;12.00;99.90;;;;;;4845837;29;20064;-84
2022/09/26 09:15:18;;;;;;;7.53;3.92;;;11.90;99.90;;;;;;4830548;29;20042;-85
2022/09/26 09:17:56;;;;;;;5.68;3.65;;;12.00;99.90;;;;;;4832144;29;20049;-85
2022/09/26 09:20:55;;;;;;;6.13;3.90;;;12.20;99.90;;;;;;4862474;29;20045;-84
2022/09/26 09:23:35;;;;;;;6.75;3.92;;;12.00;99.90;;;;;;4814505;29;20145;-84
2022/09/26 09:26:08;;;;;;;5.40;3.72;;;12.00;99.90;;;;;;4836192;29;20072;-84
2022/09/26 09:28:37;;;;;;;9.07;4.07;;;12.20;99.90;;;;;;4836357;29;20034;-85
2022/09/26 09:31:08;;;;;;;6.75;3.67;;;12.20;99.90;;;;;;4834750;29;20390;-85
2022/09/26 09:33:48;;;;;;;9.13;3.75;;;12.30;99.90;;;;;;4831022;29;20121;-83
2022/09/26 09:36:19;;;;;;;6.40;3.65;;;12.30;99.90;;;;;;4829543;29;20120;-85
2022/09/26 09:38:48;;;;;;;5.57;3.70;;;12.40;99.90;;;;;;4828863;29;20116;-84
2022/09/26 09:41:27;;;;;;;8.13;4.00;;;12.40;99.90;;;;;;4838248;29;20132;-85
2022/09/26 09:44:03;;;;;;;9.82;4.10;;;12.30;99.90;;;;;;4838583;29;20049;-84
2022/09/26 09:46:39;;;;;;;4.65;3.90;;;12.50;99.90;;;;;;4829014;29;20399;-85
2022/09/26 09:49:08;;;;;;;4.57;3.60;;;12.30;99.90;;;;;;4831658;29;20106;-84
2022/09/26 09:51:51;;;;;;;6.32;3.70;;;12.40;99.90;;;;;;4863013;29;20053;-85
2022/09/26 09:54:25;;;;;;;6.50;4.07;;;12.40;99.90;;;;;;4845288;29;20616;-85
2022/09/26 09:56:58;;;;;;;7.40;3.70;;;12.30;99.90;;;;;;4829954;29;20041;-84
2022/09/26 09:59:35;;;;;;;7.90;3.63;;;12.30;99.90;;;;;;4851010;29;20069;-85
2022/09/26 10:02:19;;;;;;;10.57;4.15;;;12.40;99.90;;;;;;4831043;29;20046;-85
2022/09/26 10:05:05;;;;;;;8.32;3.97;;;12.40;99.90;;;;;;4849898;29;20082;-84
2022/09/26 10:07:30;;;;;;;6.65;4.40;;;12.50;99.90;;;;;;4827750;29;20037;-84
2022/09/26 10:09:56;;;;;;;7.90;3.97;;;12.60;99.90;;;;;;4828107;29;20084;-85
2022/09/26 10:12:27;;;;;;;6.40;3.90;;;12.60;99.90;;;;;;4830380;29;20506;-84
2022/09/26 10:15:04;;;;;;;6.40;4.45;;;12.50;99.90;;;;;;4830180;29;20048;-85
2022/09/26 10:17:30;;;;;;;6.47;4.10;;;12.70;99.90;;;;;;4863182;29;20049;-84
2022/09/26 10:19:56;;;;;;;7.38;4.40;;;12.70;99.90;;;;;;4848242;29;20580;-84
2022/09/26 10:22:43;;;;;;;5.38;4.45;;;12.80;99.90;;;;;;4834917;29;20242;-85
2022/09/26 10:25:23;;;;;;;6.25;4.18;;;12.70;99.90;;;;;;4816682;29;20635;-85
2022/09/26 10:27:54;;;;;;;9.20;4.90;;;12.80;99.90;;;;;;4833670;29;20125;-85
2022/09/26 10:30:28;;;;;;;7.97;4.38;;;12.70;99.90;;;;;;4852232;29;20105;-84
2022/09/26 10:32:57;;;;;;;8.90;4.45;;;12.70;99.90;;;;;;4847341;29;20458;-84
2022/09/26 10:35:44;;;;;;;8.85;4.55;;;12.70;99.90;;;;;;4860394;29;20061;-85
2022/09/26 10:38:28;;;;;;;11.52;4.55;;;12.80;99.90;;;;;;4860798;29;20163;-85
2022/09/26 10:41:02;;;;;;;9.10;4.80;;;12.70;99.90;;;;;;4813361;29;20053;-84
2022/09/26 10:43:31;;;;;;;8.18;4.82;;;12.70;99.90;;;;;;4829800;29;20041;-84
2022/09/26 10:46:19;;;;;;;8.90;4.80;;;12.80;99.90;;;;;;4811705;29;20049;-85
2022/09/26 10:48:55;;;;;;;7.35;4.40;;;12.70;99.90;;;;;;4846032;29;20105;-83
2022/09/26 10:51:44;;;;;;;9.45;4.93;;;12.70;99.90;;;;;;4831968;29;20394;-84
2022/09/26 10:54:17;;;;;;;12.93;4.85;;;12.70;99.90;;;;;;4846216;29;20129;-84
2022/09/26 10:56:53;;;;;;;5.78;4.93;;;12.70;99.90;;;;;;4828915;29;20057;-85
2022/09/26 10:59:25;;;;;;;5.75;4.70;;;12.50;99.90;;;;;;4846659;29;20406;-85
2022/09/26 11:01:55;;;;;;;10.50;5.05;;;12.70;99.90;;;;;;4841878;29;20383;-85
2022/09/26 11:07:28;;;;;;;8.35;4.85;;;12.80;99.90;;;;;;4848645;29;20227;-85
2022/09/26 11:10:05;;;;;;;10.70;5.13;;;12.60;99.90;;;;;;4813061;29;20534;-84
2022/09/26 11:12:38;;;;;;;6.80;4.60;;;12.70;99.90;;;;;;4831224;29;20049;-84
2022/09/26 11:15:10;;;;;;;6.82;4.60;;;12.60;99.90;;;;;;4843310;29;20237;-84
2022/09/26 11:17:46;;;;;;;7.18;4.65;;;12.70;99.90;;;;;;4852803;29;20634;-86
2022/09/26 11:20:21;;;;;;;8.13;4.53;;;12.60;99.90;;;;;;4852568;29;20076;-85
2022/09/26 11:23:11;;;;;;;9.55;4.93;;;12.60;99.90;;;;;;4820030;29;20045;-85
2022/09/26 11:26:10;;;;;;;6.38;4.93;;;12.60;99.90;;;;;;4835285;29;20063;-84
2022/09/26 11:28:46;;;;;;;6.50;4.28;;;12.60;99.90;;;;;;4829971;29;20144;-84
2022/09/26 11:31:26;;;;;;;9.80;5.28;;;12.60;99.90;;;;;;4855462;29;20499;-84
2022/09/26 11:33:52;;;;;;;7.20;4.55;;;12.40;99.90;;;;;;4839958;29;20046;-85
2022/09/26 11:36:31;;;;;;;6.88;4.70;;;12.60;99.90;;;;;;4851108;29;20048;-84
2022/09/26 11:39:18;;;;;;;8.07;4.97;;;12.50;99.90;;;;;;4865777;29;20040;-84
2022/09/26 11:41:47;;;;;;;7.65;4.50;;;12.50;99.90;;;;;;4840402;29;20041;-84
2022/09/26 11:44:50;;;;;;;5.40;4.18;;;12.60;99.90;;;;;;4871841;29;20049;-84
2022/09/26 11:47:18;;;;;;;4.40;3.72;;;12.50;99.90;;;;;;4835544;29;20073;-84
2022/09/26 11:49:59;;;;;;;5.40;4.10;;;12.70;99.90;;;;;;4868313;29;20037;-85
2022/09/26 11:53:10;;;;;;;5.70;3.63;;;12.80;99.90;;;;;;4857496;29;20121;-84
2022/09/26 11:56:09;;;;;;;6.97;4.03;;;12.60;99.90;;;;;;4846404;29;20280;-85
2022/09/26 11:58:48;;;;;;;5.30;3.78;;;12.80;99.90;;;;;;4853728;29;20453;-85
2022/09/26 12:01:27;;;;;;;4.47;4.07;;;12.60;99.90;;;;;;4852274;29;20044;-85
2022/09/26 12:04:14;;;;;;;6.88;3.83;;;12.70;99.90;;;;;;4831197;29;20045;-84
2022/09/26 12:07:15;;;;;;;4.95;4.07;;;12.70;99.90;;;;;;4837698;29;20051;-84
2022/09/26 12:09:46;;;;;;;8.90;5.30;;;12.60;99.90;;;;;;4852354;29;20537;-85
2022/09/26 12:12:20;;;;;;;5.57;4.10;;;12.70;99.90;;;;;;4832576;29;20477;-84
2022/09/26 12:15:01;;;;;;;5.53;4.25;;;12.70;99.90;;;;;;4834305;29;20471;-84
2022/09/26 12:17:58;;;;;;;4.53;3.75;;;12.90;99.90;;;;;;4838396;29;20117;-84
2022/09/26 12:20:48;;;;;;;6.05;4.10;;;12.80;99.90;;;;;;4854625;29;20079;-84
2022/09/26 12:23:49;;;;;;;5.93;3.60;;;12.80;99.90;;;;;;4837382;29;20089;-86
2022/09/26 12:26:19;;;;;;;5.07;4.10;;;12.90;99.90;;;;;;4840812;29;20542;-85
2022/09/26 12:29:09;;;;;;;5.20;4.30;;;12.90;99.90;;;;;;4851039;29;20054;-85
2022/09/26 12:31:47;;;;;;;5.43;4.10;;;12.90;99.90;;;;;;4832875;29;20373;-84
2022/09/26 12:34:29;;;;;;;4.10;3.40;;;12.80;99.90;;;;;;4861824;29;20485;-84
2022/09/26 12:37:18;;;;;;;5.30;3.85;;;13.10;99.90;;;;;;4832233;29;20046;-85
2022/09/26 12:40:11;;;;;;;5.13;4.00;;;13.10;99.90;;;;;;4830772;29;20446;-86
2022/09/26 12:42:52;;;;;;;5.05;4.00;;;13.00;99.90;;;;;;4836860;29;20460;-84
2022/09/26 12:45:37;;;;;;;3.78;3.42;;;13.00;99.90;;;;;;4850376;29;20050;-85
2022/09/26 12:48:09;;;;;;;8.68;4.03;;;12.90;99.90;;;;;;4833415;29;20074;-85
2022/09/26 12:51:00;;;;;;;5.15;3.50;;;13.20;99.90;;;;;;4832206;29;20045;-85
2022/09/26 12:53:55;;;;;;;3.90;3.45;;;13.30;99.90;;;;;;4854741;29;20172;-85
2022/09/26 12:56:58;;;;;;;6.22;3.60;;;13.10;99.90;;;;;;4845098;29;20121;-85
2022/09/26 12:59:54;;;;;;;4.55;3.75;;;13.00;99.90;;;;;;4832626;29;20125;-85
2022/09/26 13:02:33;;;;;;;4.72;3.72;;;13.00;99.90;;;;;;4832795;29;20045;-85
2022/09/26 13:05:18;;;;;;;6.10;3.60;;;13.10;99.90;;;;;;4846031;29;20101;-85
2022/09/26 13:08:00;;;;;;;5.30;3.85;;;13.10;99.90;;;;;;4834021;29;20104;-85
2022/09/26 13:10:47;;;;;;;3.95;3.25;;;13.30;99.90;;;;;;4831586;29;20085;-85
2022/09/26 13:13:49;;;;;;;5.88;3.70;;;13.60;99.90;;;;;;4829670;29;20046;-86
2022/09/26 13:16:42;;;;;;;8.57;4.32;;;13.40;99.90;;;;;;4850719;29;20052;-85
2022/09/26 13:19:30;;;;;;;4.10;3.45;;;13.60;99.90;;;;;;4833091;29;20041;-85
2022/09/26 13:22:30;;;;;;;3.78;3.35;;;13.70;99.90;;;;;;4835895;29;20475;-85
2022/09/26 13:25:06;;;;;;;3.60;3.05;;;13.80;99.90;;;;;;4834608;29;20057;-85
2022/09/26 13:27:45;;;;;;;8.60;3.72;;;13.80;99.90;;;;;;4862450;29;20379;-85
2022/09/26 13:30:25;;;;;;;3.58;2.95;;;14.30;99.90;;;;;;4818047;29;20047;-85